Time;durP1;ratioP1;P1;durP2;ratioP2;P2;SDS_P1;SDS_P2;PMS_P1;PMS_P2;Temp;Humidity;BMP_temperature;BMP_pressure;BME280_temperature;BME280_humidity;BME280_pressure;Samples;Min_cycle;Max_cycle;Signal;HPM_P1;HPM_P2
2022/03/25 00:02:07;;;;;;;80.03;54.67;;;;;;;;;;5103959;28;20045;-71
2022/03/25 00:04:34;;;;;;;77.68;53.75;;;;;;;;;;5104477;28;20477;-71
2022/03/25 00:07:01;;;;;;;78.30;54.50;;;;;;;;;;5103979;28;20054;-71
2022/03/25 00:09:29;;;;;;;75.50;51.45;;;;;;;;;;5101141;28;20059;-71
2022/03/25 00:11:57;;;;;;;67.78;47.53;;;;;;;;;;5102526;28;20059;-71
2022/03/25 00:14:24;;;;;;;69.60;45.80;;;;;;;;;;5104880;28;20673;-71
2022/03/25 00:16:52;;;;;;;70.53;48.28;;;;;;;;;;5103755;28;20051;-71
2022/03/25 00:19:19;;;;;;;74.00;49.13;;;;;;;;;;5101914;28;20560;-71
2022/03/25 00:21:46;;;;;;;70.85;48.08;;;;;;;;;;5103612;28;20059;-71
2022/03/25 00:24:13;;;;;;;64.50;46.50;;;;;;;;;;5102554;28;20048;-71
2022/03/25 00:26:41;;;;;;;70.22;47.80;;;;;;;;;;5102231;28;20048;-71
2022/03/25 00:29:09;;;;;;;73.88;49.20;;;;;;;;;;5102639;28;20055;-71
2022/03/25 00:31:37;;;;;;;73.90;50.17;;;;;;;;;;5107094;28;20048;-71
2022/03/25 00:34:04;;;;;;;81.90;52.75;;;;;;;;;;5104289;28;20108;-71
2022/03/25 00:36:31;;;;;;;75.72;50.55;;;;;;;;;;5121501;28;20059;-71
2022/03/25 00:38:58;;;;;;;77.57;51.70;;;;;;;;;;5102686;28;20051;-71
2022/03/25 00:41:25;;;;;;;82.03;52.50;;;;;;;;;;5104223;28;20056;-71
2022/03/25 00:43:53;;;;;;;74.63;50.25;;;;;;;;;;5101538;28;20043;-71
2022/03/25 00:46:21;;;;;;;71.47;49.55;;;;;;;;;;5104189;28;20821;-71
2022/03/25 00:48:49;;;;;;;79.82;51.55;;;;;;;;;;5116633;27;20054;-71
2022/03/25 00:51:16;;;;;;;77.63;51.53;;;;;;;;;;5106897;28;20108;-71
2022/03/25 00:53:44;;;;;;;78.45;51.42;;;;;;;;;;5108181;27;20047;-71
2022/03/25 00:56:12;;;;;;;79.35;50.83;;;;;;;;;;5107950;27;20113;-71
2022/03/25 00:58:39;;;;;;;76.78;51.25;;;;;;;;;;5109787;27;20051;-71
2022/03/25 01:01:06;;;;;;;78.00;51.65;;;;;;;;;;5110381;27;20055;-71
2022/03/25 01:03:35;;;;;;;74.85;49.22;;;;;;;;;;5107479;27;20485;-71
2022/03/25 01:06:03;;;;;;;72.07;47.75;;;;;;;;;;5108915;27;20043;-71
2022/03/25 01:08:30;;;;;;;77.45;47.03;;;;;;;;;;5107426;27;20055;-71
2022/03/25 01:10:58;;;;;;;68.07;48.15;;;;;;;;;;5110226;27;20139;-71
2022/03/25 01:13:25;;;;;;;75.78;48.35;;;;;;;;;;5110598;27;20241;-72
2022/03/25 01:15:52;;;;;;;70.85;46.67;;;;;;;;;;5108677;27;20162;-71
2022/03/25 01:18:20;;;;;;;76.15;49.13;;;;;;;;;;5108026;27;20051;-71
2022/03/25 01:20:49;;;;;;;72.50;47.95;;;;;;;;;;5104124;27;20056;-71
2022/03/25 01:23:16;;;;;;;66.05;44.90;;;;;;;;;;5122444;27;20060;-71
2022/03/25 01:25:43;;;;;;;67.75;44.70;;;;;;;;;;5108218;27;20050;-71
2022/03/25 01:28:11;;;;;;;68.70;46.25;;;;;;;;;;5109451;27;20046;-71
2022/03/25 01:30:38;;;;;;;71.88;47.65;;;;;;;;;;5107158;27;20054;-71
2022/03/25 01:33:05;;;;;;;66.53;45.60;;;;;;;;;;5107245;28;20055;-71
2022/03/25 01:35:32;;;;;;;67.82;45.17;;;;;;;;;;5109594;27;20046;-71
2022/03/25 01:38:01;;;;;;;68.60;45.22;;;;;;;;;;5124879;27;20056;-71
2022/03/25 01:40:28;;;;;;;69.55;45.90;;;;;;;;;;5106858;27;20051;-71
2022/03/25 01:42:56;;;;;;;65.22;45.03;;;;;;;;;;5107094;27;20058;-71
2022/03/25 01:45:30;;;;;;;73.53;47.28;;;;;;;;;;5110713;27;20062;-71
2022/03/25 01:47:58;;;;;;;64.78;42.58;;;;;;;;;;5109255;27;20075;-71
2022/03/25 01:50:25;;;;;;;71.88;46.08;;;;;;;;;;5110194;27;20057;-71
2022/03/25 01:52:53;;;;;;;73.03;44.85;;;;;;;;;;5107730;27;20058;-71
2022/03/25 01:55:24;;;;;;;69.68;44.97;;;;;;;;;;5108107;27;20155;-71
2022/03/25 01:57:52;;;;;;;74.22;46.75;;;;;;;;;;5109768;27;20051;-71
2022/03/25 02:00:20;;;;;;;65.78;45.17;;;;;;;;;;5105750;27;20066;-71
2022/03/25 02:02:48;;;;;;;74.05;45.55;;;;;;;;;;5109237;27;20051;-71
2022/03/25 02:05:16;;;;;;;69.47;43.40;;;;;;;;;;5106245;27;20070;-71
2022/03/25 02:07:43;;;;;;;69.22;45.05;;;;;;;;;;5110394;27;20116;-71
2022/03/25 02:10:10;;;;;;;75.40;46.67;;;;;;;;;;5106336;27;20051;-71
2022/03/25 02:12:40;;;;;;;71.00;45.40;;;;;;;;;;5109611;27;20051;-71
2022/03/25 02:15:08;;;;;;;67.85;43.45;;;;;;;;;;5105140;27;20122;-71
2022/03/25 02:17:37;;;;;;;64.50;43.35;;;;;;;;;;5107795;27;20462;-71
2022/03/25 02:20:08;;;;;;;67.13;43.42;;;;;;;;;;5108880;27;20959;-71
2022/03/25 02:22:37;;;;;;;67.18;44.88;;;;;;;;;;5108320;27;20532;-71
2022/03/25 02:25:07;;;;;;;67.22;42.42;;;;;;;;;;5109193;27;20058;-71
2022/03/25 02:27:34;;;;;;;77.00;45.83;;;;;;;;;;5110163;27;20104;-71
2022/03/25 02:30:02;;;;;;;76.45;49.08;;;;;;;;;;5101907;27;20048;-71
2022/03/25 02:32:29;;;;;;;73.65;45.58;;;;;;;;;;5106105;27;20383;-71
2022/03/25 02:34:57;;;;;;;80.05;50.03;;;;;;;;;;5107667;27;20459;-71
2022/03/25 02:37:25;;;;;;;74.10;47.90;;;;;;;;;;5109070;27;20054;-71
2022/03/25 02:39:54;;;;;;;79.85;48.13;;;;;;;;;;5107756;27;20385;-71
2022/03/25 02:42:21;;;;;;;71.47;46.60;;;;;;;;;;5107450;27;20059;-71
2022/03/25 02:44:49;;;;;;;84.43;52.33;;;;;;;;;;5106600;27;20047;-71
2022/03/25 02:47:17;;;;;;;75.68;48.08;;;;;;;;;;5106285;27;20163;-71
2022/03/25 02:49:44;;;;;;;73.85;48.40;;;;;;;;;;5101186;27;20421;-71
2022/03/25 02:52:11;;;;;;;75.70;49.55;;;;;;;;;;5109193;27;20723;-71
2022/03/25 02:54:38;;;;;;;81.47;48.33;;;;;;;;;;5109898;27;20420;-71
2022/03/25 02:57:07;;;;;;;73.18;47.40;;;;;;;;;;5109217;27;20051;-71
2022/03/25 02:59:34;;;;;;;83.65;51.55;;;;;;;;;;5105181;27;20700;-72
2022/03/25 03:02:01;;;;;;;77.13;49.97;;;;;;;;;;5105016;27;20116;-71
2022/03/25 03:04:29;;;;;;;76.13;48.17;;;;;;;;;;5105538;27;20051;-71
2022/03/25 03:06:56;;;;;;;81.47;50.53;;;;;;;;;;5107361;27;20059;-71
2022/03/25 03:09:23;;;;;;;74.30;46.47;;;;;;;;;;5109321;27;20081;-71
2022/03/25 03:11:51;;;;;;;74.10;47.75;;;;;;;;;;5108655;27;20066;-71
2022/03/25 03:14:20;;;;;;;79.65;49.20;;;;;;;;;;5105945;27;20473;-71
2022/03/25 03:16:48;;;;;;;79.72;48.75;;;;;;;;;;5104961;27;20082;-71
2022/03/25 03:19:15;;;;;;;85.55;52.17;;;;;;;;;;5108237;27;20055;-71
2022/03/25 03:21:43;;;;;;;78.80;49.85;;;;;;;;;;5107097;27;20055;-71
2022/03/25 03:24:10;;;;;;;77.85;50.70;;;;;;;;;;5108429;27;20112;-71
2022/03/25 03:26:37;;;;;;;77.75;48.30;;;;;;;;;;5101520;28;20047;-71
2022/03/25 03:29:05;;;;;;;79.55;49.80;;;;;;;;;;5108574;27;20043;-71
2022/03/25 03:31:33;;;;;;;91.05;53.35;;;;;;;;;;5108031;27;20407;-71
2022/03/25 03:34:01;;;;;;;80.68;50.05;;;;;;;;;;5106470;27;20385;-71
2022/03/25 03:36:28;;;;;;;87.20;53.80;;;;;;;;;;5108746;27;20550;-71
2022/03/25 03:38:55;;;;;;;86.30;52.22;;;;;;;;;;5104745;27;20055;-71
2022/03/25 03:41:22;;;;;;;88.18;53.05;;;;;;;;;;5107609;27;20055;-71
2022/03/25 03:43:49;;;;;;;101.90;57.20;;;;;;;;;;5105531;27;20738;-71
2022/03/25 03:46:17;;;;;;;82.78;51.90;;;;;;;;;;5107052;27;20984;-71
2022/03/25 03:48:46;;;;;;;86.85;52.72;;;;;;;;;;5107005;27;20086;-71
2022/03/25 03:51:14;;;;;;;90.35;54.55;;;;;;;;;;5106485;27;20047;-71
2022/03/25 03:53:41;;;;;;;91.38;53.25;;;;;;;;;;5106667;27;20150;-71
2022/03/25 03:56:08;;;;;;;90.47;54.67;;;;;;;;;;5106544;27;20134;-71
2022/03/25 03:58:35;;;;;;;83.40;52.78;;;;;;;;;;5106858;27;20055;-71
2022/03/25 04:01:03;;;;;;;87.10;51.58;;;;;;;;;;5104998;27;20051;-71
2022/03/25 04:03:30;;;;;;;89.55;54.83;;;;;;;;;;5104317;27;20100;-71
2022/03/25 04:06:00;;;;;;;86.40;52.53;;;;;;;;;;5106826;28;20130;-71
2022/03/25 04:08:27;;;;;;;88.38;52.05;;;;;;;;;;5105155;28;20459;-71
2022/03/25 04:10:54;;;;;;;87.25;51.53;;;;;;;;;;5101538;28;20110;-71
2022/03/25 04:13:21;;;;;;;85.85;51.85;;;;;;;;;;5104777;28;20058;-71
2022/03/25 04:15:49;;;;;;;97.75;55.20;;;;;;;;;;5104156;28;20092;-71
2022/03/25 04:18:16;;;;;;;84.78;51.22;;;;;;;;;;5107854;28;20659;-71
2022/03/25 04:20:44;;;;;;;93.72;55.70;;;;;;;;;;5108257;28;20050;-71
2022/03/25 04:23:12;;;;;;;96.18;54.88;;;;;;;;;;5106320;28;20046;-71
2022/03/25 04:25:39;;;;;;;95.88;54.05;;;;;;;;;;5107311;28;20558;-71
2022/03/25 04:28:07;;;;;;;79.55;49.33;;;;;;;;;;5102297;27;20051;-71
2022/03/25 04:30:35;;;;;;;79.28;46.25;;;;;;;;;;5112865;27;20535;-71
2022/03/25 04:33:03;;;;;;;76.07;43.92;;;;;;;;;;5111154;27;20119;-71
2022/03/25 04:35:30;;;;;;;76.63;45.05;;;;;;;;;;5109604;27;20043;-71
2022/03/25 04:37:58;;;;;;;71.93;44.53;;;;;;;;;;5108907;27;20055;-71
2022/03/25 04:40:28;;;;;;;76.28;45.22;;;;;;;;;;5110688;27;20427;-71
2022/03/25 04:42:56;;;;;;;91.50;50.55;;;;;;;;;;5109900;27;20502;-71
2022/03/25 04:45:24;;;;;;;83.38;49.45;;;;;;;;;;5106747;27;20047;-71
2022/03/25 04:47:52;;;;;;;93.40;51.85;;;;;;;;;;5110461;27;20675;-71
2022/03/25 04:50:19;;;;;;;90.53;50.53;;;;;;;;;;5101536;27;20055;-71
2022/03/25 04:52:47;;;;;;;96.13;50.90;;;;;;;;;;5102662;27;20109;-71
2022/03/25 04:55:14;;;;;;;87.82;50.97;;;;;;;;;;5107811;27;20055;-71
2022/03/25 04:57:43;;;;;;;85.45;49.85;;;;;;;;;;5107952;27;20051;-71
2022/03/25 05:00:11;;;;;;;89.15;50.47;;;;;;;;;;5107692;27;20078;-71
2022/03/25 05:02:39;;;;;;;93.18;50.97;;;;;;;;;;5110756;27;20054;-71
2022/03/25 05:05:06;;;;;;;79.28;43.40;;;;;;;;;;5110943;27;20416;-71
2022/03/25 05:07:34;;;;;;;51.33;30.80;;;;;;;;;;5111721;27;20172;-71
2022/03/25 05:10:01;;;;;;;36.58;24.05;;;;;;;;;;5111758;27;20051;-71
2022/03/25 05:12:29;;;;;;;39.28;24.00;;;;;;;;;;5109378;27;20054;-71
2022/03/25 05:14:58;;;;;;;58.00;36.92;;;;;;;;;;5101223;27;20047;-71
2022/03/25 05:17:26;;;;;;;62.45;37.05;;;;;;;;;;5102405;28;20048;-71
2022/03/25 05:19:54;;;;;;;75.10;44.00;;;;;;;;;;5105263;27;20120;-71
2022/03/25 05:22:22;;;;;;;75.70;45.08;;;;;;;;;;5108837;27;20138;-71
2022/03/25 05:24:49;;;;;;;76.38;45.15;;;;;;;;;;5109123;27;20174;-71
2022/03/25 05:27:17;;;;;;;84.35;49.55;;;;;;;;;;5105864;27;20511;-71
2022/03/25 05:29:44;;;;;;;87.68;48.35;;;;;;;;;;5108022;27;20109;-71
2022/03/25 05:32:13;;;;;;;87.55;49.90;;;;;;;;;;5107257;27;20701;-71
2022/03/25 05:34:41;;;;;;;85.55;47.80;;;;;;;;;;5125672;27;20485;-71
2022/03/25 05:37:08;;;;;;;81.57;44.95;;;;;;;;;;5106446;28;20053;-71
2022/03/25 05:39:36;;;;;;;88.28;49.65;;;;;;;;;;5103331;28;20492;-71
2022/03/25 05:42:03;;;;;;;77.18;44.20;;;;;;;;;;5106424;27;20051;-71
2022/03/25 05:44:30;;;;;;;71.25;40.90;;;;;;;;;;5102912;27;20601;-71
2022/03/25 05:46:58;;;;;;;66.45;38.63;;;;;;;;;;5097455;28;20118;-71
2022/03/25 05:49:26;;;;;;;83.22;43.42;;;;;;;;;;5106377;28;20051;-71
2022/03/25 05:51:54;;;;;;;71.63;40.17;;;;;;;;;;5107075;28;20367;-71
2022/03/25 05:54:21;;;;;;;71.97;41.45;;;;;;;;;;5098885;28;20051;-71
2022/03/25 05:56:48;;;;;;;78.05;46.42;;;;;;;;;;5099431;28;20056;-71
2022/03/25 05:59:15;;;;;;;84.85;50.00;;;;;;;;;;5099624;28;20129;-71
2022/03/25 06:01:43;;;;;;;82.20;48.58;;;;;;;;;;5102598;28;20063;-71
2022/03/25 06:04:10;;;;;;;81.35;47.90;;;;;;;;;;5103562;28;20051;-71
2022/03/25 06:06:39;;;;;;;88.88;50.08;;;;;;;;;;5099279;28;20094;-71
2022/03/25 06:09:06;;;;;;;94.90;52.45;;;;;;;;;;5106658;28;20437;-71
2022/03/25 06:11:33;;;;;;;84.35;50.72;;;;;;;;;;5107546;27;20100;-71
2022/03/25 06:14:00;;;;;;;88.90;49.53;;;;;;;;;;5120338;27;20048;-71
2022/03/25 06:16:27;;;;;;;86.32;50.35;;;;;;;;;;5097957;28;20059;-71
2022/03/25 06:18:55;;;;;;;82.10;49.15;;;;;;;;;;5104227;28;20829;-71
2022/03/25 06:21:23;;;;;;;85.47;48.88;;;;;;;;;;5104304;28;20060;-71
2022/03/25 06:23:51;;;;;;;89.35;50.22;;;;;;;;;;5101049;28;20051;-71
2022/03/25 06:26:19;;;;;;;88.13;50.83;;;;;;;;;;5104284;28;20839;-71
2022/03/25 06:28:46;;;;;;;87.57;51.13;;;;;;;;;;5104365;28;20051;-71
2022/03/25 06:31:13;;;;;;;86.55;49.92;;;;;;;;;;5102355;28;20446;-71
2022/03/25 06:33:41;;;;;;;89.43;48.58;;;;;;;;;;5104541;28;20463;-71
2022/03/25 06:36:10;;;;;;;82.40;48.60;;;;;;;;;;5098730;28;20192;-71
2022/03/25 06:38:37;;;;;;;76.70;46.50;;;;;;;;;;5097953;28;20066;-71
2022/03/25 06:41:06;;;;;;;91.70;51.78;;;;;;;;;;5097668;28;20451;-71
2022/03/25 06:43:33;;;;;;;83.22;48.72;;;;;;;;;;5097412;28;20351;-71
2022/03/25 06:46:00;;;;;;;79.93;48.83;;;;;;;;;;5095691;28;20059;-71
2022/03/25 06:48:28;;;;;;;79.72;47.40;;;;;;;;;;5094685;28;20111;-71
2022/03/25 06:50:55;;;;;;;78.65;47.30;;;;;;;;;;5097537;28;20121;-71
2022/03/25 06:53:23;;;;;;;86.65;51.03;;;;;;;;;;5094644;28;20113;-71
2022/03/25 06:55:50;;;;;;;77.65;48.00;;;;;;;;;;5095731;28;20055;-71
2022/03/25 06:58:19;;;;;;;88.22;49.10;;;;;;;;;;5096447;28;20070;-71
2022/03/25 07:00:47;;;;;;;86.28;51.78;;;;;;;;;;5099220;28;20051;-71
2022/03/25 07:03:14;;;;;;;80.90;48.60;;;;;;;;;;5097072;28;20047;-71
2022/03/25 07:05:42;;;;;;;87.88;51.78;;;;;;;;;;5096084;28;20055;-71
2022/03/25 07:08:10;;;;;;;85.97;50.90;;;;;;;;;;5097660;28;20062;-71
2022/03/25 07:10:38;;;;;;;80.40;49.28;;;;;;;;;;5097114;28;20128;-71
2022/03/25 07:13:06;;;;;;;85.63;52.88;;;;;;;;;;5097693;28;20048;-71
2022/03/25 07:15:35;;;;;;;82.53;49.95;;;;;;;;;;5099887;28;20062;-71
2022/03/25 07:18:02;;;;;;;95.28;53.35;;;;;;;;;;5103000;28;20489;-71
2022/03/25 07:20:29;;;;;;;84.38;51.03;;;;;;;;;;5104060;28;20139;-71
2022/03/25 07:22:56;;;;;;;82.15;51.28;;;;;;;;;;5102345;28;20394;-71
2022/03/25 07:25:25;;;;;;;91.43;50.97;;;;;;;;;;5095885;28;20048;-71
2022/03/25 07:27:53;;;;;;;88.70;50.95;;;;;;;;;;5102393;28;20048;-72
2022/03/25 07:30:20;;;;;;;83.95;49.95;;;;;;;;;;5101686;28;20071;-72
2022/03/25 07:32:48;;;;;;;83.55;50.17;;;;;;;;;;5099316;28;20582;-72
2022/03/25 07:35:16;;;;;;;76.82;48.10;;;;;;;;;;5102120;28;20051;-71
2022/03/25 07:37:44;;;;;;;77.10;48.35;;;;;;;;;;5102037;28;20051;-71
2022/03/25 07:40:12;;;;;;;76.63;46.08;;;;;;;;;;5119284;27;20048;-71
2022/03/25 07:42:40;;;;;;;79.20;46.58;;;;;;;;;;5103542;28;20409;-71
2022/03/25 07:45:08;;;;;;;71.82;43.05;;;;;;;;;;5098576;28;20096;-72
2022/03/25 07:47:36;;;;;;;73.55;42.72;;;;;;;;;;5101691;28;20067;-72
2022/03/25 07:50:05;;;;;;;67.88;39.90;;;;;;;;;;5104729;28;20888;-72
2022/03/25 07:52:32;;;;;;;65.55;38.90;;;;;;;;;;5103868;28;20138;-72
2022/03/25 07:54:59;;;;;;;57.78;36.65;;;;;;;;;;5104155;28;20070;-72
2022/03/25 07:57:26;;;;;;;63.05;38.72;;;;;;;;;;5103750;28;20055;-72
2022/03/25 07:59:53;;;;;;;59.47;38.80;;;;;;;;;;5098893;28;20055;-72
2022/03/25 08:02:21;;;;;;;60.25;38.58;;;;;;;;;;5102830;28;20048;-72
2022/03/25 08:04:48;;;;;;;59.33;37.42;;;;;;;;;;5102241;28;20063;-72
2022/03/25 08:07:16;;;;;;;57.97;37.03;;;;;;;;;;5101204;28;20378;-72
2022/03/25 08:09:44;;;;;;;53.20;34.88;;;;;;;;;;5099790;28;20058;-72
2022/03/25 08:12:11;;;;;;;58.63;37.72;;;;;;;;;;5099887;28;20047;-72
2022/03/25 08:14:38;;;;;;;52.42;33.40;;;;;;;;;;5100798;28;20048;-72
2022/03/25 08:17:08;;;;;;;53.95;36.22;;;;;;;;;;5099302;28;20085;-71
2022/03/25 08:19:35;;;;;;;54.25;35.13;;;;;;;;;;5102690;28;20048;-72
2022/03/25 08:22:02;;;;;;;56.85;35.80;;;;;;;;;;5104430;28;20039;-72
2022/03/25 08:30:00;;;;;;;55.58;33.53;;;;;;;;;;5096518;28;20047;-72
2022/03/25 08:32:28;;;;;;;47.08;31.95;;;;;;;;;;5096600;28;20161;-74
2022/03/25 08:34:55;;;;;;;49.65;31.55;;;;;;;;;;5096358;28;20070;-72
2022/03/25 08:37:22;;;;;;;54.17;32.17;;;;;;;;;;5097251;28;20055;-72
2022/03/25 08:39:51;;;;;;;47.92;31.08;;;;;;;;;;5097538;28;20487;-72
2022/03/25 08:42:18;;;;;;;44.67;29.65;;;;;;;;;;5096367;28;20055;-72
2022/03/25 08:44:45;;;;;;;50.25;30.27;;;;;;;;;;5093878;28;20058;-73
2022/03/25 08:47:13;;;;;;;43.33;29.13;;;;;;;;;;5113829;27;20051;-73
2022/03/25 08:49:41;;;;;;;48.22;27.92;;;;;;;;;;5091978;28;20499;-73
2022/03/25 08:52:08;;;;;;;48.65;28.85;;;;;;;;;;5098472;28;20543;-73
2022/03/25 08:54:35;;;;;;;51.83;29.15;;;;;;;;;;5096517;28;20063;-73
2022/03/25 08:57:04;;;;;;;44.90;28.40;;;;;;;;;;5102819;28;20052;-73
2022/03/25 08:59:31;;;;;;;42.88;26.95;;;;;;;;;;5104440;28;20062;-73
2022/03/25 09:01:59;;;;;;;45.10;24.98;;;;;;;;;;5104659;28;20051;-73
2022/03/25 09:04:26;;;;;;;40.83;26.23;;;;;;;;;;5100220;28;20058;-73
2022/03/25 09:06:53;;;;;;;44.58;26.73;;;;;;;;;;5102970;28;20044;-72
2022/03/25 09:09:21;;;;;;;41.13;25.75;;;;;;;;;;5101725;28;20525;-73
2022/03/25 09:11:48;;;;;;;41.10;25.23;;;;;;;;;;5104026;28;20113;-72
2022/03/25 09:14:17;;;;;;;44.72;25.58;;;;;;;;;;5098579;28;20498;-73
2022/03/25 09:16:44;;;;;;;42.13;24.55;;;;;;;;;;5101088;28;20694;-73
2022/03/25 09:19:12;;;;;;;45.72;24.45;;;;;;;;;;5103567;28;20067;-73
2022/03/25 09:21:40;;;;;;;36.60;22.48;;;;;;;;;;5106891;28;20456;-72
2022/03/25 09:24:07;;;;;;;42.67;23.92;;;;;;;;;;5104593;28;20055;-73
2022/03/25 09:26:34;;;;;;;36.83;23.20;;;;;;;;;;5106445;28;20100;-73
2022/03/25 09:29:01;;;;;;;31.88;20.90;;;;;;;;;;5103541;28;20047;-73
2022/03/25 09:31:30;;;;;;;34.95;20.58;;;;;;;;;;5107803;28;20506;-73
2022/03/25 09:35:08;;;;;;;32.92;19.23;;;;;;;;;;5107093;28;20092;-73
2022/03/25 09:36:45;;;;;;;40.13;19.55;;;;;;;;;;5098801;28;20132;-73
2022/03/25 09:39:12;;;;;;;31.20;19.55;;;;;;;;;;5106044;28;20541;-73
2022/03/25 09:41:39;;;;;;;31.33;19.23;;;;;;;;;;5103831;28;20599;-73
2022/03/25 09:44:07;;;;;;;31.35;19.83;;;;;;;;;;5097019;28;20475;-73
2022/03/25 09:46:41;;;;;;;36.30;19.40;;;;;;;;;;5100505;28;20052;-73
2022/03/25 09:49:08;;;;;;;34.20;18.67;;;;;;;;;;5106797;27;20043;-73
2022/03/25 09:51:36;;;;;;;33.58;18.52;;;;;;;;;;5110594;27;20047;-73
2022/03/25 09:54:03;;;;;;;36.05;19.42;;;;;;;;;;5107848;27;20054;-73
2022/03/25 09:56:31;;;;;;;34.25;19.92;;;;;;;;;;5103098;27;20051;-73
2022/03/25 09:58:58;;;;;;;33.15;20.45;;;;;;;;;;5110083;27;20046;-73
2022/03/25 10:01:25;;;;;;;30.92;17.48;;;;;;;;;;5107924;27;20763;-73
2022/03/25 10:03:54;;;;;;;31.33;17.83;;;;;;;;;;5108334;27;20054;-73
2022/03/25 10:06:21;;;;;;;30.17;17.63;;;;;;;;;;5109677;27;20055;-73
2022/03/25 10:08:57;;;;;;;32.72;17.52;;;;;;;;;;5110856;27;20465;-73
2022/03/25 10:11:25;;;;;;;38.42;17.77;;;;;;;;;;5109793;27;20068;-73
2022/03/25 10:14:14;;;;;;;28.42;17.88;;;;;;;;;;5110354;27;20048;-73
2022/03/25 10:16:42;;;;;;;32.17;17.20;;;;;;;;;;5105617;27;20051;-73
2022/03/25 10:19:11;;;;;;;29.75;16.83;;;;;;;;;;5105789;28;20756;-73
2022/03/25 10:21:52;;;;;;;26.35;16.70;;;;;;;;;;5105198;27;20125;-73
2022/03/25 10:24:19;;;;;;;27.63;15.00;;;;;;;;;;5110715;27;20980;-73
2022/03/25 10:26:47;;;;;;;30.65;16.33;;;;;;;;;;5099941;27;20047;-73
2022/03/25 10:29:21;;;;;;;28.65;16.15;;;;;;;;;;5110504;27;20454;-73
2022/03/25 10:32:05;;;;;;;25.63;16.02;;;;;;;;;;5109766;27;20058;-73
2022/03/25 10:34:34;;;;;;;28.70;17.05;;;;;;;;;;5107367;27;20058;-73
2022/03/25 10:37:01;;;;;;;30.48;15.98;;;;;;;;;;5102019;27;20421;-73
2022/03/25 10:39:28;;;;;;;25.98;16.17;;;;;;;;;;5106064;27;20047;-73
2022/03/25 10:41:58;;;;;;;23.98;15.02;;;;;;;;;;5104101;27;20561;-73
2022/03/25 10:44:35;;;;;;;24.27;15.57;;;;;;;;;;5099166;27;20100;-73
2022/03/25 10:47:20;;;;;;;23.67;14.35;;;;;;;;;;5100004;27;20052;-73
2022/03/25 10:49:50;;;;;;;26.55;16.10;;;;;;;;;;5094059;28;20158;-73
2022/03/25 10:52:30;;;;;;;27.13;17.05;;;;;;;;;;5101158;27;20051;-73
2022/03/25 10:55:15;;;;;;;31.50;19.67;;;;;;;;;;5120280;27;20381;-73
2022/03/25 10:57:49;;;;;;;31.15;19.40;;;;;;;;;;5101652;27;20047;-73
2022/03/25 11:00:17;;;;;;;32.17;17.83;;;;;;;;;;5106380;27;20409;-73
2022/03/25 11:02:44;;;;;;;28.75;17.90;;;;;;;;;;5105809;27;20066;-73
2022/03/25 11:05:13;;;;;;;30.73;19.17;;;;;;;;;;5108043;27;20464;-73
2022/03/25 11:07:43;;;;;;;30.48;18.13;;;;;;;;;;5108495;27;20055;-73
2022/03/25 11:10:12;;;;;;;32.33;20.65;;;;;;;;;;5109410;27;20051;-73
2022/03/25 11:12:43;;;;;;;35.92;20.80;;;;;;;;;;5108492;27;20177;-73
2022/03/25 11:15:11;;;;;;;40.03;20.60;;;;;;;;;;5108206;27;20134;-73
2022/03/25 11:17:39;;;;;;;33.10;20.10;;;;;;;;;;5103385;27;20100;-73
2022/03/25 11:20:08;;;;;;;31.33;20.33;;;;;;;;;;5107275;27;20047;-73
2022/03/25 11:22:38;;;;;;;34.42;19.88;;;;;;;;;;5102027;27;20057;-73
2022/03/25 11:25:06;;;;;;;31.40;16.80;;;;;;;;;;5104587;27;20139;-73
2022/03/25 11:27:34;;;;;;;26.52;16.33;;;;;;;;;;5104585;27;20562;-73
2022/03/25 11:30:03;;;;;;;28.73;18.05;;;;;;;;;;5108817;27;20054;-73
2022/03/25 11:32:31;;;;;;;28.92;18.63;;;;;;;;;;5108244;27;20409;-73
2022/03/25 11:35:16;;;;;;;34.75;22.48;;;;;;;;;;5109327;27;20039;-73
2022/03/25 11:37:44;;;;;;;41.40;24.10;;;;;;;;;;5100399;28;20039;-73
2022/03/25 11:40:27;;;;;;;44.47;28.33;;;;;;;;;;5107762;27;20062;-73
2022/03/25 11:42:56;;;;;;;40.30;27.42;;;;;;;;;;5125778;27;20096;-73
2022/03/25 11:45:37;;;;;;;42.03;27.40;;;;;;;;;;5107146;27;20051;-73
2022/03/25 11:48:25;;;;;;;35.10;24.23;;;;;;;;;;5106633;27;20085;-73
2022/03/25 11:50:54;;;;;;;34.17;22.52;;;;;;;;;;5101737;27;20051;-73
2022/03/25 11:53:32;;;;;;;34.17;23.67;;;;;;;;;;5098749;28;20062;-73
2022/03/25 11:56:01;;;;;;;33.20;22.65;;;;;;;;;;5107897;27;20059;-73
2022/03/25 11:58:28;;;;;;;37.55;25.15;;;;;;;;;;5106981;28;20053;-73
2022/03/25 12:00:58;;;;;;;32.47;24.08;;;;;;;;;;5108432;27;20047;-73
2022/03/25 12:03:40;;;;;;;32.95;21.85;;;;;;;;;;5107640;28;20203;-73
2022/03/25 12:06:08;;;;;;;34.22;24.55;;;;;;;;;;5108399;27;20055;-73
2022/03/25 12:08:36;;;;;;;37.13;25.55;;;;;;;;;;5107688;27;20099;-73
2022/03/25 12:11:06;;;;;;;35.47;25.67;;;;;;;;;;5108633;27;20047;-73
2022/03/25 12:13:52;;;;;;;31.88;22.88;;;;;;;;;;5107499;28;20059;-73
2022/03/25 12:16:38;;;;;;;31.77;23.35;;;;;;;;;;5105141;28;20538;-73
2022/03/25 12:19:05;;;;;;;33.17;22.08;;;;;;;;;;5103677;28;20096;-73
2022/03/25 12:21:45;;;;;;;35.22;23.17;;;;;;;;;;5106931;28;20087;-73
2022/03/25 12:24:14;;;;;;;35.28;23.52;;;;;;;;;;5106788;28;20116;-73
2022/03/25 12:26:41;;;;;;;34.20;24.48;;;;;;;;;;5101219;28;20410;-73
2022/03/25 12:29:09;;;;;;;35.42;25.30;;;;;;;;;;5100325;28;20046;-74
2022/03/25 12:31:36;;;;;;;29.63;21.13;;;;;;;;;;5097072;28;20088;-74
2022/03/25 12:34:05;;;;;;;32.53;22.90;;;;;;;;;;5104773;28;20517;-74
2022/03/25 12:36:37;;;;;;;38.13;23.55;;;;;;;;;;5107319;28;20063;-74
2022/03/25 12:39:04;;;;;;;31.57;21.70;;;;;;;;;;5101136;28;20047;-73
2022/03/25 12:41:33;;;;;;;28.70;20.70;;;;;;;;;;5099411;28;20301;-74
2022/03/25 12:44:01;;;;;;;30.85;22.33;;;;;;;;;;5099231;28;20051;-74
2022/03/25 12:46:29;;;;;;;35.70;24.63;;;;;;;;;;5094268;28;20467;-73
2022/03/25 12:49:03;;;;;;;29.52;20.40;;;;;;;;;;5119151;27;20055;-73
2022/03/25 12:51:31;;;;;;;32.10;20.90;;;;;;;;;;5103733;27;20124;-73
2022/03/25 12:53:58;;;;;;;35.85;23.63;;;;;;;;;;5101843;27;20047;-74
2022/03/25 12:56:25;;;;;;;34.92;23.27;;;;;;;;;;5099229;28;20459;-73
2022/03/25 12:58:54;;;;;;;30.48;19.73;;;;;;;;;;5106604;27;20051;-74
2022/03/25 13:01:22;;;;;;;38.17;21.10;;;;;;;;;;5108704;27;20515;-74
2022/03/25 13:03:49;;;;;;;30.38;19.98;;;;;;;;;;5109218;27;20607;-73
2022/03/25 13:06:17;;;;;;;29.95;20.13;;;;;;;;;;5112390;27;20796;-74
2022/03/25 13:08:45;;;;;;;28.65;19.85;;;;;;;;;;5110547;27;20047;-74
2022/03/25 13:11:15;;;;;;;28.58;19.38;;;;;;;;;;5111770;27;20509;-74
2022/03/25 13:13:42;;;;;;;29.08;20.20;;;;;;;;;;5104667;27;20043;-73
2022/03/25 13:16:11;;;;;;;26.58;19.05;;;;;;;;;;5105328;27;20103;-74
2022/03/25 13:18:39;;;;;;;27.85;19.50;;;;;;;;;;5107981;27;20066;-74
2022/03/25 13:21:06;;;;;;;29.85;19.25;;;;;;;;;;5111984;27;20528;-74
2022/03/25 13:23:34;;;;;;;30.75;17.98;;;;;;;;;;5128322;27;20047;-74
2022/03/25 13:26:02;;;;;;;30.67;19.10;;;;;;;;;;5111079;27;20060;-74
2022/03/25 13:28:30;;;;;;;26.92;18.48;;;;;;;;;;5111003;27;20126;-74
2022/03/25 13:30:58;;;;;;;26.90;19.75;;;;;;;;;;5109421;27;20054;-74
2022/03/25 13:33:28;;;;;;;33.38;19.85;;;;;;;;;;5111528;27;20131;-74
2022/03/25 13:35:56;;;;;;;31.63;20.67;;;;;;;;;;5106341;27;20088;-74
2022/03/25 13:38:25;;;;;;;37.70;20.73;;;;;;;;;;5099425;27;20044;-74
2022/03/25 13:40:54;;;;;;;26.92;20.02;;;;;;;;;;5108515;27;20421;-74
2022/03/25 13:43:23;;;;;;;28.77;20.77;;;;;;;;;;5119184;27;20070;-75
2022/03/25 13:45:58;;;;;;;29.60;19.77;;;;;;;;;;5104520;27;20051;-74
2022/03/25 13:48:36;;;;;;;35.72;21.40;;;;;;;;;;5097759;27;20083;-74
2022/03/25 13:51:03;;;;;;;29.92;20.65;;;;;;;;;;5101409;27;20050;-74
2022/03/25 13:53:35;;;;;;;29.40;19.30;;;;;;;;;;5100557;27;20056;-74
2022/03/25 13:56:13;;;;;;;29.00;19.03;;;;;;;;;;5105611;27;20466;-74
2022/03/25 13:58:40;;;;;;;30.48;20.77;;;;;;;;;;5108752;27;20158;-74
2022/03/25 14:01:08;;;;;;;23.48;18.65;;;;;;;;;;5108811;27;20043;-74
2022/03/25 14:03:36;;;;;;;28.08;19.38;;;;;;;;;;5110610;27;20063;-74
2022/03/25 14:06:14;;;;;;;26.10;18.77;;;;;;;;;;5110478;27;20055;-74
2022/03/25 14:08:41;;;;;;;28.65;18.85;;;;;;;;;;5109170;27;20043;-74
2022/03/25 14:11:09;;;;;;;32.03;21.48;;;;;;;;;;5105113;28;20047;-74
2022/03/25 14:13:53;;;;;;;25.25;20.20;;;;;;;;;;5109901;27;20039;-74
2022/03/25 14:16:20;;;;;;;25.15;19.75;;;;;;;;;;5105978;27;20497;-74
2022/03/25 14:18:56;;;;;;;23.85;16.48;;;;;;;;;;5109084;27;20511;-74
2022/03/25 14:21:27;;;;;;;28.20;19.45;;;;;;;;;;5100135;27;20100;-75
2022/03/25 14:24:30;;;;;;;27.67;19.90;;;;;;;;;;5110774;27;20103;-74
2022/03/25 14:26:42;;;;;;;26.95;18.50;;;;;;;;;;5103013;27;20493;-74
2022/03/25 14:29:09;;;;;;;29.05;21.33;;;;;;;;;;5110009;27;20054;-74
2022/03/25 14:31:36;;;;;;;26.88;21.33;;;;;;;;;;5103834;27;20899;-74